Terminal Aerodrome Forecast
Issued by NWS Cleveland, OH

Current Version | Previous Version | Text Only | Print | Product List | Glossary On
Versions: 1 2 3 4 5 6 7 8 9 10 11 12 13 14 15 16 17 18 19 20 21 22 23
580
FTUS41 KCLE 251735
TAFERI
TAF
KERI 251735Z 2518/2618 02010KT P6SM BKN030
     FM251900 03010KT P6SM BKN035
     FM252100 03010KT P6SM SCT035
     FM260200 14006KT P6SM SKC
     FM261500 22007KT P6SM SCT250=

USA.gov is the U.S. government's official web portal to all federal, state and local government web resources and services.